Pittsburgh, Pennsylvania
Traffic Map
Current Weather Conditions
Pittsburgh, Pennsylvania
Overcast
Overcast
42°
Feels Like: 36°
Wind Chill: 36° Ceiling: 3300
Heat Index: 42° Visibility: 10mi
Dew Point: 30° Wind: 12mph
Humidity: 62% Direction: 340° (NNW)
Pressure: 29.97in Gusts: 0mph
Raw Report DataKAGC 280008Z AUTO 34010KT 10SM SCT027 OVC033 06/M01 A2997 RMK AO2 T00561011 TSNO
Traffic Incident Summary
Active as of:
Severity:
Category:
InformationThere was an issue retrieving the traffic information for this location. Please try a different location or try again shortly.
Advertisements
Track Severe Weather on mobile